Relevés horaires Kleine Brogel (Belgique)


Relevés horaires à Kleine Brogel - Jeudi 23 Mai 2024
Heure UTC1 Température [°C] Vent [km/h] Hum. [%] Pres.4 [hPa] Visi. [Km] Nébu. [octa] Préc.5 [mm] Cond.
2m. Res. Ros. Dir.2 Vit. Moy. Raf.3
23:00 12.8 12.8 11.8 NNO 1.9 -- 0.0 94 1017.3(0.4/3h) 18 -- -- --
22:00 12.6 12.6 11.2 NNO 0.0 -- 0.0 91 1017.3(1.4/3h) 14 -- -- --
21:00 13.5 13.5 11.4 NNO 0.0 -- 9.3 87 1017.2(1.7/3h) >70 -- -- --
20:00 15.0 15.0 11.2 NNO 1.9 -- 7.4 78 1016.8(1.6/3h) 35 -- -- --
19:00 16.9 16.9 11.6 NNO 3.7 -- 9.3 71 1015.8(0.8/3h) >70 -- -- --
18:00 18.6 18.6 11.9 O 3.7 -- 13.0 65 1015.3(0.4/3h) >70 -- 0.5/12h
NA
17:00 18.6 18.6 11.6 OSO 5.6 -- 9.3 64 1015.1(0.1/3h) >70 -- -- --
16:00 20.9 20.9 10.4 NNO 1.9 -- 13.0 51 1015(0.0/3h) >70 -- -- --
15:00 19.7 19.7 12.5 OSO 5.6 -- 13.0 63 1014.8(-0.4/3h) >70 -- -- NA
14:00 19.6 19.6 12.4 SO 5.6 -- 11.1 63 1014.8(-0.4/3h) >70 -- -- NA
13:00 18.2 18.2 12.4 SO 3.7 -- 11.1 69 1015.1(-0.3/3h) 20 5/8 -- Il y a des averses de pluie modérées ou fortes à la station au moment de l'observation
12:00 16.2 16.2 12.3 NNO 1.9 -- 14.8 78 1015.3(0.2/3h) 15 6/8 0.5/6h
Il y a eu une averse de pluie à la station au cours de l'heure précédente, mais il n'y en a pas au moment de l'observation
11:00 18.2 18.2 12.0 SO 3.7 -- 11.1 67 1015.2(0.3/3h) 30 6/8 -- --
10:00 17.2 17.2 11.7 SO 7.4 -- 11.1 70 1015.5(0.7/3h) 30 7/8 -- --
09:00 16.8 16.8 11.6 SO 7.4 -- 14.8 71 1015.1(0.7/3h) 30 7/8 -- --
08:00 15.5 15.5 11.3 OSO 5.6 -- 13.0 76 1015(1.0/3h) 30 5/8 -- --
07:00 15.6 15.4 11.4 SO 9.3 -- 14.8 76 1014.7(1.1/3h) 30 3/8 -- --
06:00 13.5 13.2 11.2 SO 7.4 -- 13.0 86 1014.3(1.0/3h) 30 6/8 -- --
05:00 12.2 12.1 10.5 SSO 5.6 -- 9.3 89 1014.1(0.7/3h) 30 0/8 -- --
04:00 11.0 11.0 10.1 SSO 3.7 -- 7.4 94 1013.7(0.3/3h) 26 -- -- --
03:00 11.1 11.1 9.9 SSO 3.7 -- 9.3 92 1013.5(0.0/3h) 30 -- -- --
02:00 11.3 11.3 10.1 SSO 3.7 -- 9.3 92 1013.2(0.0/3h) 40 -- -- --
01:00 12.0 11.9 10.4 SSO 5.6 -- 7.4 90 1013.2(0.2/3h) 14 -- -- --
00:00 12.1 12.1 10.4 NNO 1.9 -- 14.8 89 1013.3(0.6/3h) 17 -- -- --

1 Coordinated Universal Time. Actuellement il est 01:00 locale et 23:00 UTC.

2 Le vent souffle depuis la direction indiquée vers la direction oposée.

3 Les rafales max. sont disponible 40 min après l'heure du relevé.

4 Pour les stations d'altitude (plus de 600m) le géopotentiel du niveau le plus proche de la pression obligatoire est indiqué.

5 Les stations disposant d'un diffuseur peuvent indiquer "trace". Cela signifie que des précipitations ont touchés le sol mais que la quantité est inférieure à 0.1 mm.

Récapitulatif de la journée
Température [°C] Vent [km/h] Ensoleillement4 [h] Precipitations totale5 [mm] Pression [Hpa]
Min1 Max.2 Moy.3 Max. Min Max.
10.8 21.4 0 14.8 0 h 0 min 0 1013.2 1017.3

1 Température minimale relevée entre 18:00 UTC la veille et 18:00 UTC le jour donné.

2 Température maximale relevée entre 06:00 UTC le jour donné et 06:00 UTC le lendemain.

3 Vent moyen de la journée basé sur les relevés horaires.

4 Ensoleillement en heures relevé entre 06:00 UTC la veille et 06:00 UTC le jour donné.

5 Précipitations totales tombées entre 06:00 UTC la jour donné et 06:00 UTC le lendemain.

Graphiques horaires